Time;durP1;ratioP1;P1;durP2;ratioP2;P2;SDS_P1;SDS_P2;PMS_P1;PMS_P2;Temp;Humidity;BMP_temperature;BMP_pressure;BME280_temperature;BME280_humidity;BME280_pressure;Samples;Min_cycle;Max_cycle;Signal;HPM_P1;HPM_P2
2021/12/17 00:04:37;;;;;;;8.90;8.00;;;16.10;62.30;16.50;103077.00;;;;4947612;29;20240;-40
2021/12/17 00:07:09;;;;;;;8.73;7.83;;;16.10;62.20;16.60;103077.00;;;;4948003;28;20595;-39
2021/12/17 00:09:35;;;;;;;8.70;7.87;;;16.10;62.40;16.60;103063.00;;;;4948023;28;20185;-40
2021/12/17 00:12:01;;;;;;;8.40;7.60;;;16.20;62.50;16.70;103069.00;;;;4947545;28;20641;-40
2021/12/17 00:14:29;;;;;;;8.20;7.40;;;16.10;62.30;16.80;103074.00;;;;4956268;28;20324;-40
2021/12/17 00:17:02;;;;;;;8.53;7.73;;;16.20;62.60;16.80;103070.00;;;;4966822;28;20296;-39
2021/12/17 00:44:19;;;;;;;8.57;7.77;;;16.10;63.20;16.90;103063.00;;;;4966570;28;20204;-38
2021/12/17 00:49:13;;;;;;;8.20;7.40;;;16.00;63.30;16.90;103054.00;;;;4966657;28;20181;-40
2021/12/17 00:54:20;;;;;;;8.73;7.83;;;16.00;63.40;16.90;103052.00;;;;4966736;28;20193;-40
2021/12/17 00:56:48;;;;;;;8.90;8.07;;;16.00;63.40;16.90;103052.00;;;;4967247;28;20177;-40
2021/12/17 00:59:14;;;;;;;9.10;8.20;;;16.00;63.50;16.90;103055.00;;;;4967090;28;20288;-40
2021/12/17 01:01:40;;;;;;;9.17;8.23;;;15.90;63.40;16.90;103047.00;;;;4966580;28;20669;-40
2021/12/17 01:04:05;;;;;;;8.73;7.93;;;16.00;63.50;16.90;103041.00;;;;4966393;28;20185;-39
2021/12/17 01:06:31;;;;;;;9.07;8.17;;;15.90;63.50;16.90;103039.00;;;;4966726;28;20173;-40
2021/12/17 01:08:57;;;;;;;8.20;7.40;;;15.90;63.70;16.90;103048.00;;;;4968136;28;20184;-40
2021/12/17 01:11:26;;;;;;;8.43;7.63;;;15.90;63.60;16.90;103035.00;;;;4969926;28;20743;-40
2021/12/17 01:13:52;;;;;;;8.30;7.50;;;15.90;63.60;16.90;103034.00;;;;4969639;28;20633;-40
2021/12/17 01:16:18;;;;;;;9.20;8.30;;;15.90;63.60;16.90;103031.00;;;;4970195;28;20181;-40
2021/12/17 01:18:58;;;;;;;9.17;8.27;;;15.90;63.80;16.90;103022.00;;;;4969853;28;20251;-40
2021/12/17 01:24:16;;;;;;;9.43;8.60;;;15.90;63.70;16.80;103028.00;;;;4969954;28;20284;-40
2021/12/17 01:43:03;;;;;;;8.37;7.60;;;15.80;63.90;16.70;103032.00;;;;4969518;28;20175;-40
2021/12/17 01:45:35;;;;;;;8.67;7.87;;;15.70;63.90;16.70;103039.00;;;;4969475;28;20241;-39
2021/12/17 01:48:02;;;;;;;8.17;7.37;;;15.70;64.00;16.70;103045.00;;;;4969142;28;20648;-40
2021/12/17 02:01:14;;;;;;;8.67;7.87;;;15.60;63.90;16.70;103050.00;;;;4969730;28;20240;-40
2021/12/17 02:03:40;;;;;;;8.87;8.07;;;15.60;63.90;16.70;103051.00;;;;4969304;28;20201;-40
2021/12/17 02:06:06;;;;;;;8.13;7.43;;;15.60;64.00;16.70;103055.00;;;;4936023;28;20188;-40
2021/12/17 02:08:32;;;;;;;8.77;7.97;;;15.60;64.10;16.70;103038.00;;;;4969386;28;20177;-40
2021/12/17 02:30:05;;;;;;;8.50;7.70;;;15.50;64.10;16.50;103051.00;;;;4968645;28;20232;-40
2021/12/17 02:32:33;;;;;;;7.80;7.10;;;15.50;64.00;16.50;103047.00;;;;4968654;28;20644;-39
2021/12/17 02:35:20;;;;;;;8.20;7.40;;;15.50;64.00;16.50;103048.00;;;;4968304;28;20208;-40
2021/12/17 02:37:48;;;;;;;7.90;7.20;;;15.50;64.00;16.50;103053.00;;;;4967341;28;20185;-39
2021/12/17 02:45:32;;;;;;;8.00;7.30;;;15.50;64.10;16.50;103054.00;;;;4968852;28;20536;-40
2021/12/17 02:48:09;;;;;;;8.50;7.70;;;15.50;64.10;16.50;103053.00;;;;4968232;28;20211;-40
2021/12/17 02:50:42;;;;;;;8.30;7.50;;;15.50;64.10;16.50;103054.00;;;;4968438;28;20185;-40
2021/12/17 02:53:08;;;;;;;8.30;7.50;;;15.40;64.10;16.50;103053.00;;;;4967371;28;20546;-40
2021/12/17 02:55:39;;;;;;;7.80;7.10;;;15.40;64.20;16.50;103048.00;;;;4972508;28;20328;-40
2021/12/17 02:58:06;;;;;;;8.37;7.57;;;15.40;64.30;16.50;103064.00;;;;4969199;28;20165;-40
2021/12/17 03:00:32;;;;;;;7.83;7.13;;;15.40;64.10;16.50;103058.00;;;;4968283;28;20228;-39
2021/12/17 03:02:58;;;;;;;7.77;7.07;;;15.40;64.30;16.50;103046.00;;;;4967801;28;20177;-40
2021/12/17 03:05:26;;;;;;;7.87;7.17;;;15.30;64.20;16.50;103045.00;;;;4966620;28;20173;-40
2021/12/17 03:07:51;;;;;;;7.80;7.10;;;15.40;64.30;16.50;103032.00;;;;4966953;28;20232;-39
2021/12/17 03:10:17;;;;;;;8.13;7.33;;;15.40;64.30;16.50;103045.00;;;;4951081;28;20612;-39
2021/12/17 03:15:22;;;;;;;7.43;6.73;;;15.40;64.30;16.50;103046.00;;;;4966702;28;20252;-40
2021/12/17 03:25:43;;;;;;;7.40;6.73;;;15.30;64.20;16.40;103050.00;;;;4968060;28;20464;-40
2021/12/17 03:28:09;;;;;;;7.80;7.10;;;15.30;64.30;16.40;103037.00;;;;4967485;28;20644;-40
2021/12/17 03:30:35;;;;;;;7.53;6.83;;;15.30;64.10;16.40;103039.00;;;;4967138;28;20267;-40
2021/12/17 03:33:00;;;;;;;7.50;6.90;;;15.30;64.30;16.40;103032.00;;;;4967636;28;20454;-40
2021/12/17 03:35:26;;;;;;;7.90;7.20;;;15.30;65.20;16.40;103027.00;;;;4967335;28;20585;-40
2021/12/17 03:37:52;;;;;;;7.40;6.70;;;15.20;64.30;16.40;103031.00;;;;4967841;28;20177;-40
2021/12/17 03:40:19;;;;;;;7.40;6.80;;;15.30;64.40;16.30;103025.00;;;;4967709;28;20189;-40
2021/12/17 03:42:48;;;;;;;7.73;7.00;;;15.20;64.30;16.30;103031.00;;;;4967324;28;20181;-40
2021/12/17 03:45:15;;;;;;;7.70;7.00;;;15.20;64.30;16.30;103033.00;;;;4967048;28;20247;-40
2021/12/17 03:47:41;;;;;;;8.00;7.20;;;15.20;64.10;16.30;103029.00;;;;4967342;28;20288;-40
2021/12/17 03:50:06;;;;;;;7.40;6.80;;;15.20;64.30;16.30;103042.00;;;;4967824;28;20177;-40
2021/12/17 03:52:32;;;;;;;6.97;6.33;;;15.20;64.30;16.30;103022.00;;;;4967900;28;20177;-40
2021/12/17 03:54:58;;;;;;;7.50;6.80;;;15.20;64.30;16.30;103030.00;;;;4949691;28;20264;-40
2021/12/17 03:57:24;;;;;;;7.43;6.83;;;15.20;64.30;16.30;103035.00;;;;4967213;28;20181;-40
2021/12/17 03:59:49;;;;;;;7.40;6.70;;;15.20;64.30;16.30;103034.00;;;;4969108;28;20679;-40
2021/12/17 04:02:15;;;;;;;7.30;6.63;;;15.20;64.30;16.30;103037.00;;;;4973218;28;20177;-40
2021/12/17 04:04:41;;;;;;;7.33;6.63;;;15.20;64.10;16.30;103027.00;;;;4962229;28;20280;-40
2021/12/17 04:07:07;;;;;;;7.57;6.87;;;15.20;64.30;16.30;103029.00;;;;4966545;28;20289;-40
2021/12/17 04:09:33;;;;;;;7.70;7.00;;;15.20;64.00;16.20;103024.00;;;;4966961;28;20838;-40
2021/12/17 04:12:01;;;;;;;7.40;6.70;;;15.20;64.30;16.20;103033.00;;;;4966621;28;20181;-40
2021/12/17 04:14:34;;;;;;;7.40;6.70;;;15.20;64.20;16.20;103028.00;;;;4957022;28;20276;-39
2021/12/17 04:17:04;;;;;;;7.40;6.70;;;15.20;64.20;16.20;103033.00;;;;4947954;29;20188;-39
2021/12/17 04:19:30;;;;;;;7.27;6.67;;;15.10;64.20;16.20;103036.00;;;;4946311;29;20233;-40
2021/12/17 04:21:56;;;;;;;7.53;6.83;;;15.10;64.20;16.20;103031.00;;;;4947827;29;20613;-40
2021/12/17 04:24:21;;;;;;;7.20;6.60;;;15.10;63.90;16.20;103031.00;;;;4947440;28;20622;-40
2021/12/17 04:26:47;;;;;;;7.00;6.40;;;15.10;64.10;16.20;103028.00;;;;4947571;28;20185;-40
2021/12/17 04:29:13;;;;;;;7.03;6.43;;;15.10;64.00;16.20;103022.00;;;;4947410;29;20641;-40
2021/12/17 04:31:39;;;;;;;7.23;6.57;;;15.10;64.20;16.20;103027.00;;;;4947326;28;20237;-40
2021/12/17 04:34:05;;;;;;;7.03;6.43;;;15.10;64.20;16.20;103031.00;;;;4947426;28;20201;-40
2021/12/17 04:36:34;;;;;;;7.33;6.73;;;15.10;64.20;16.20;103034.00;;;;4947915;28;20582;-39
2021/12/17 04:39:01;;;;;;;7.57;6.87;;;15.10;64.20;16.20;103036.00;;;;4947299;29;20534;-40
2021/12/17 04:41:48;;;;;;;7.30;6.70;;;15.10;64.10;16.10;103039.00;;;;4946769;28;20181;-40
2021/12/17 04:44:20;;;;;;;7.47;6.80;;;15.10;64.20;16.10;103039.00;;;;4949608;28;20210;-40
2021/12/17 04:57:36;;;;;;;7.07;6.47;;;15.00;64.10;16.10;103031.00;;;;4950817;28;20181;-40
2021/12/17 05:00:19;;;;;;;7.67;6.97;;;15.00;64.10;16.10;103036.00;;;;4950907;28;20405;-40
2021/12/17 05:02:48;;;;;;;7.00;6.30;;;15.00;64.10;16.10;103038.00;;;;4950638;29;20188;-40
2021/12/17 05:05:14;;;;;;;7.50;6.80;;;15.00;64.10;16.10;103044.00;;;;4950694;29;20205;-40
2021/12/17 05:07:45;;;;;;;7.53;6.83;;;15.00;64.10;16.10;103048.00;;;;4952794;29;20178;-40
2021/12/17 05:10:42;;;;;;;7.27;6.67;;;15.00;64.10;16.10;103051.00;;;;4952477;28;20173;-40
2021/12/17 05:18:45;;;;;;;6.57;5.93;;;14.90;63.90;16.10;103043.00;;;;4949934;29;20209;-40
2021/12/17 05:21:11;;;;;;;7.00;6.40;;;14.90;63.90;16.10;103045.00;;;;4949371;28;20205;-40
2021/12/17 05:23:42;;;;;;;7.37;6.67;;;14.90;64.00;16.10;103041.00;;;;4949905;29;20201;-39
2021/12/17 05:26:11;;;;;;;7.73;6.47;;;14.90;63.90;16.10;103034.00;;;;4949831;29;20174;-40
2021/12/17 05:28:36;;;;;;;6.93;6.23;;;14.90;64.30;16.10;103037.00;;;;4949650;29;20184;-40
2021/12/17 05:31:02;;;;;;;7.07;6.37;;;14.90;63.90;16.10;103041.00;;;;4952718;28;20618;-40
2021/12/17 05:33:28;;;;;;;7.10;6.40;;;14.90;63.90;16.10;103040.00;;;;4948893;29;20207;-40
2021/12/17 05:35:54;;;;;;;6.67;6.03;;;14.90;64.00;16.10;103028.00;;;;4949439;29;20668;-40
2021/12/17 05:38:21;;;;;;;7.13;6.43;;;14.90;63.90;16.10;103032.00;;;;4949604;28;20169;-40
2021/12/17 05:40:47;;;;;;;6.70;6.10;;;14.90;63.90;16.10;103019.00;;;;4948911;29;20300;-40
2021/12/17 05:43:14;;;;;;;6.50;5.90;;;14.90;64.00;16.10;103024.00;;;;4949552;29;20225;-40
2021/12/17 05:48:09;;;;;;;7.20;6.50;;;14.90;64.00;16.10;103030.00;;;;4948973;28;20347;-39
2021/12/17 05:50:37;;;;;;;7.70;6.30;;;14.90;64.00;16.10;103034.00;;;;4948936;29;20177;-39
2021/12/17 05:53:04;;;;;;;7.13;6.43;;;14.90;63.90;16.10;103032.00;;;;4949149;29;20182;-39
2021/12/17 05:55:29;;;;;;;7.03;6.40;;;14.80;63.90;16.10;103024.00;;;;4948968;28;20230;-39
2021/12/17 05:57:55;;;;;;;7.57;6.33;;;14.80;63.80;16.10;103032.00;;;;4949608;28;20197;-39
2021/12/17 06:00:21;;;;;;;7.17;6.47;;;14.80;64.20;16.10;103027.00;;;;4948484;29;20206;-39
2021/12/17 06:02:47;;;;;;;7.27;6.57;;;14.90;64.10;16.10;103039.00;;;;4948732;28;20185;-38
2021/12/17 06:05:13;;;;;;;7.47;6.27;;;14.80;63.80;16.10;103036.00;;;;4948846;29;20186;-41
2021/12/17 06:07:39;;;;;;;6.53;5.93;;;14.90;64.00;16.10;103039.00;;;;4958293;28;20435;-39
2021/12/17 06:10:06;;;;;;;13.47;6.47;;;14.90;64.30;16.10;103032.00;;;;4968084;28;20660;-39
2021/12/17 06:12:31;;;;;;;8.10;6.23;;;14.80;64.40;16.10;103033.00;;;;4967806;28;20340;-40
2021/12/17 06:14:57;;;;;;;7.17;6.33;;;14.80;64.60;16.00;103029.00;;;;4967420;28;20311;-40
2021/12/17 06:17:23;;;;;;;10.63;6.00;;;14.90;65.00;16.10;103033.00;;;;4966918;28;20345;-40
2021/12/17 06:19:49;;;;;;;6.83;6.23;;;14.90;65.30;16.00;103031.00;;;;4967980;28;20687;-40
2021/12/17 06:22:15;;;;;;;9.53;6.07;;;14.90;65.50;16.00;103034.00;;;;4967649;28;20596;-40
2021/12/17 06:24:44;;;;;;;15.10;6.27;;;14.90;65.40;16.00;103039.00;;;;4967701;28;20280;-40
2021/12/17 06:27:12;;;;;;;14.33;6.77;;;14.80;65.60;16.10;103038.00;;;;4967415;28;20312;-40
2021/12/17 06:29:38;;;;;;;9.43;6.30;;;14.80;65.40;16.00;103034.00;;;;4967299;28;20177;-39
2021/12/17 06:32:05;;;;;;;12.03;6.57;;;14.80;65.60;16.00;103020.00;;;;4966903;28;20173;-40
2021/12/17 06:34:31;;;;;;;12.60;6.87;;;14.80;65.20;16.00;103024.00;;;;4968496;28;20217;-40
2021/12/17 06:36:56;;;;;;;7.27;6.57;;;14.80;65.20;16.00;103022.00;;;;4972672;28;20184;-40
2021/12/17 06:39:22;;;;;;;8.27;6.23;;;14.80;65.40;16.00;103025.00;;;;4970392;28;20683;-40
2021/12/17 06:41:48;;;;;;;8.60;6.33;;;14.80;65.60;16.00;103022.00;;;;4967401;28;20177;-40
2021/12/17 06:44:17;;;;;;;8.03;6.07;;;14.80;65.50;16.00;103018.00;;;;4967151;28;20676;-39
2021/12/17 06:54:57;;;;;;;7.30;5.97;;;14.80;65.10;16.00;103032.00;;;;4967278;28;20344;-40
2021/12/17 07:11:16;;;;;;;8.27;6.57;;;14.80;65.10;15.90;103035.00;;;;4966614;28;20168;-40
2021/12/17 07:20:03;;;;;;;6.67;5.67;;;14.80;65.00;15.90;103032.00;;;;4966465;28;20231;-40
2021/12/17 07:22:14;;;;;;;6.33;5.70;;;14.80;65.00;15.90;103027.00;;;;4966635;28;20276;-40
2021/12/17 07:32:46;;;;;;;6.43;5.83;;;14.80;64.80;15.90;103025.00;;;;4965422;28;20220;-40
2021/12/17 07:35:25;;;;;;;6.63;6.03;;;14.80;64.90;15.90;103022.00;;;;4966688;28;20196;-40
2021/12/17 07:40:37;;;;;;;6.20;5.60;;;14.80;64.70;15.90;103038.00;;;;4966125;28;20353;-40
2021/12/17 07:43:10;;;;;;;6.23;5.63;;;14.80;64.90;15.90;103031.00;;;;4969162;28;20173;-40
2021/12/17 07:45:36;;;;;;;6.53;5.83;;;14.80;64.90;15.90;103038.00;;;;4968720;28;20548;-40
2021/12/17 07:48:01;;;;;;;6.30;5.70;;;14.80;64.90;15.90;103047.00;;;;4966400;28;20177;-40
2021/12/17 07:50:27;;;;;;;6.03;5.43;;;14.80;64.60;15.90;103057.00;;;;4965860;28;20173;-40
2021/12/17 07:52:53;;;;;;;6.20;5.60;;;14.70;64.40;15.90;103061.00;;;;4966030;28;20191;-40
2021/12/17 07:55:19;;;;;;;5.87;5.33;;;14.70;64.60;15.90;103061.00;;;;4966394;28;20211;-40
2021/12/17 07:57:44;;;;;;;6.60;5.87;;;14.70;64.80;15.90;103068.00;;;;4966324;28;20247;-40
2021/12/17 08:00:11;;;;;;;6.40;5.57;;;14.70;64.70;15.90;103059.00;;;;4966335;28;20197;-40
2021/12/17 08:02:36;;;;;;;5.80;5.30;;;14.70;64.60;15.90;103075.00;;;;4965491;28;20177;-40
2021/12/17 08:05:02;;;;;;;6.33;5.73;;;14.70;64.50;15.90;103061.00;;;;4965991;28;20192;-40
2021/12/17 08:07:28;;;;;;;6.00;5.40;;;14.70;64.40;15.90;103063.00;;;;4966213;28;20177;-40
2021/12/17 08:09:54;;;;;;;5.83;5.20;;;14.70;64.70;15.90;103070.00;;;;4966221;28;20173;-39
2021/12/17 08:12:20;;;;;;;6.10;5.50;;;14.70;64.80;15.90;103071.00;;;;4965135;28;20528;-40
2021/12/17 08:14:45;;;;;;;6.03;5.43;;;14.70;64.50;15.90;103074.00;;;;4965361;28;20243;-40
2021/12/17 08:18:14;;;;;;;5.90;5.30;;;14.70;64.40;15.90;103072.00;;;;4966297;28;20205;-39
2021/12/17 08:25:43;;;;;;;6.27;5.67;;;14.70;64.60;15.90;103074.00;;;;4970300;28;20159;-40
2021/12/17 08:28:12;;;;;;;6.13;5.53;;;14.70;64.60;15.90;103076.00;;;;4969648;28;20700;-40
2021/12/17 08:30:39;;;;;;;6.03;5.43;;;14.70;64.60;15.90;103070.00;;;;4970213;28;20664;-40
2021/12/17 08:33:06;;;;;;;6.23;5.63;;;14.70;64.70;15.90;103079.00;;;;4968792;28;20208;-40
2021/12/17 08:35:33;;;;;;;5.97;5.40;;;14.70;64.50;15.90;103068.00;;;;4968950;28;20169;-40
2021/12/17 08:37:59;;;;;;;6.40;5.80;;;14.70;64.60;15.90;103076.00;;;;4970232;28;20376;-40
2021/12/17 08:40:26;;;;;;;6.00;5.40;;;14.70;64.70;15.90;103080.00;;;;4969377;28;20201;-39
2021/12/17 08:42:53;;;;;;;5.90;5.40;;;14.70;64.50;15.90;103088.00;;;;4969825;28;20409;-39
2021/12/17 08:45:19;;;;;;;6.67;5.93;;;14.70;64.90;15.90;103091.00;;;;4969465;28;20267;-39
2021/12/17 08:47:45;;;;;;;6.13;5.53;;;14.70;64.70;15.90;103092.00;;;;4968286;28;20703;-39
2021/12/17 08:50:11;;;;;;;6.50;5.90;;;14.70;64.50;15.90;103100.00;;;;4969622;28;20727;-39
2021/12/17 08:52:37;;;;;;;6.30;5.70;;;14.70;64.50;15.90;103097.00;;;;4969784;28;20181;-39
2021/12/17 08:55:04;;;;;;;5.93;5.43;;;14.70;64.70;15.90;103108.00;;;;4968852;28;20192;-39
2021/12/17 08:57:30;;;;;;;5.90;5.40;;;14.70;64.70;15.90;103100.00;;;;4968260;28;20240;-39
2021/12/17 08:59:57;;;;;;;5.87;5.37;;;14.70;64.60;15.90;103104.00;;;;4972813;28;20389;-39
2021/12/17 09:02:24;;;;;;;6.33;5.80;;;14.70;64.60;15.90;103096.00;;;;4970837;28;20176;-39
2021/12/17 09:04:50;;;;;;;5.90;5.40;;;14.70;64.40;15.90;103093.00;;;;4972617;28;20197;-40
2021/12/17 09:07:16;;;;;;;5.80;5.30;;;14.70;64.50;15.90;103107.00;;;;4972367;28;20180;-40
2021/12/17 09:09:44;;;;;;;6.40;5.80;;;14.70;64.40;15.90;103099.00;;;;4972530;28;20180;-40
2021/12/17 09:12:10;;;;;;;7.07;5.57;;;14.70;64.30;15.90;103101.00;;;;4971165;28;20624;-40
2021/12/17 09:14:36;;;;;;;6.23;5.63;;;14.70;64.40;15.90;103098.00;;;;4970334;28;20200;-39
2021/12/17 09:17:02;;;;;;;6.67;5.97;;;14.70;64.70;15.90;103095.00;;;;4971260;28;20184;-39
2021/12/17 09:19:27;;;;;;;6.20;5.60;;;14.60;64.50;15.80;103099.00;;;;4952371;28;20880;-40
2021/12/17 09:21:53;;;;;;;6.60;5.97;;;14.60;64.40;15.80;103108.00;;;;4969482;28;20169;-40
2021/12/17 09:24:19;;;;;;;6.03;5.53;;;14.70;64.30;15.80;103099.00;;;;4960508;28;20200;-39
2021/12/17 09:26:44;;;;;;;6.20;5.60;;;14.70;64.70;15.80;103106.00;;;;4953016;28;20185;-39
2021/12/17 09:29:10;;;;;;;6.03;5.53;;;14.60;64.40;15.80;103109.00;;;;4959115;28;20206;-39
2021/12/17 09:31:36;;;;;;;6.20;5.60;;;14.60;64.10;15.80;103113.00;;;;4972277;28;20416;-39
2021/12/17 09:34:02;;;;;;;6.23;5.63;;;14.60;64.30;15.80;103120.00;;;;4964688;28;20202;-39
2021/12/17 09:36:28;;;;;;;6.33;5.67;;;14.70;64.30;15.80;103121.00;;;;4952246;28;20350;-39
2021/12/17 09:38:54;;;;;;;6.30;5.70;;;14.60;64.40;15.80;103040.00;;;;4957374;28;20411;-40
2021/12/17 09:41:23;;;;;;;6.30;5.70;;;14.60;64.40;15.80;103127.00;;;;4972166;28;20205;-39
2021/12/17 09:43:49;;;;;;;6.37;5.77;;;14.60;64.40;15.80;103134.00;;;;4970712;28;20730;-39
2021/12/17 09:46:15;;;;;;;5.73;5.23;;;14.70;64.30;15.80;103128.00;;;;4971616;28;20173;-39
2021/12/17 09:48:41;;;;;;;6.40;5.80;;;14.60;64.30;15.80;103114.00;;;;4971584;28;20656;-39
2021/12/17 09:51:07;;;;;;;6.70;6.07;;;14.60;64.00;15.80;103130.00;;;;4938387;28;20181;-41
2021/12/17 09:53:33;;;;;;;6.70;6.00;;;14.60;64.50;15.80;103123.00;;;;4971562;28;20199;-39
2021/12/17 09:55:59;;;;;;;6.13;5.53;;;14.60;64.30;15.80;103123.00;;;;4971558;28;20586;-41
2021/12/17 09:58:25;;;;;;;5.97;5.47;;;14.70;64.50;15.80;103125.00;;;;4971364;28;20193;-40
2021/12/17 10:00:51;;;;;;;7.13;5.73;;;14.60;64.30;15.80;103129.00;;;;4971124;28;20201;-40
2021/12/17 10:03:17;;;;;;;6.40;5.80;;;14.70;64.20;15.80;103134.00;;;;4971070;28;20169;-40
2021/12/17 10:05:44;;;;;;;6.13;5.53;;;14.60;63.70;15.80;103110.00;;;;4971200;28;20195;-40
2021/12/17 10:08:16;;;;;;;6.00;5.50;;;14.70;64.20;15.80;103114.00;;;;4971221;28;20177;-40
2021/12/17 10:10:50;;;;;;;6.43;5.83;;;14.60;64.20;15.80;103119.00;;;;4971315;28;20173;-40
2021/12/17 10:13:21;;;;;;;5.97;5.37;;;14.60;64.30;15.80;103116.00;;;;4969656;28;20196;-40
2021/12/17 10:15:55;;;;;;;6.50;5.90;;;14.60;64.30;15.80;103122.00;;;;4971305;28;20165;-40
2021/12/17 10:18:41;;;;;;;6.27;5.67;;;14.60;64.20;15.80;103119.00;;;;4973831;28;20605;-41
2021/12/17 10:21:09;;;;;;;6.33;5.73;;;14.60;64.50;15.80;103117.00;;;;4970468;28;20189;-41
2021/12/17 10:23:35;;;;;;;6.17;5.57;;;14.60;64.30;15.80;103119.00;;;;4970765;28;20279;-40
2021/12/17 10:26:01;;;;;;;6.20;5.60;;;14.60;64.20;15.80;103120.00;;;;4970844;28;20173;-40
2021/12/17 10:28:27;;;;;;;6.50;5.90;;;14.60;64.60;15.60;103110.00;;;;4971301;28;20161;-40
2021/12/17 10:30:55;;;;;;;6.50;5.90;;;14.60;64.40;15.80;103116.00;;;;4970849;28;20644;-40
2021/12/17 10:33:25;;;;;;;7.13;5.83;;;14.60;64.30;15.80;103114.00;;;;4970400;28;20200;-41
2021/12/17 10:35:52;;;;;;;7.60;5.40;;;14.60;64.40;15.80;103108.00;;;;4970971;28;20686;-39
2021/12/17 10:38:24;;;;;;;6.20;5.60;;;14.60;64.20;15.80;103110.00;;;;4970997;28;20200;-39
2021/12/17 10:41:03;;;;;;;6.07;5.57;;;14.60;64.40;15.80;103109.00;;;;4953471;28;20206;-39
2021/12/17 10:43:37;;;;;;;6.13;5.53;;;14.60;64.50;15.80;103121.00;;;;4951268;29;20189;-40
2021/12/17 10:46:23;;;;;;;5.97;5.40;;;14.50;64.30;15.80;103108.00;;;;4951004;28;20170;-40
2021/12/17 10:48:54;;;;;;;6.13;5.47;;;14.60;64.40;15.80;103116.00;;;;4966892;28;20523;-41
2021/12/17 10:54:11;;;;;;;6.00;5.40;;;14.60;64.30;15.70;103076.00;;;;4970267;28;20188;-39
2021/12/17 10:56:40;;;;;;;6.27;5.67;;;14.60;64.30;15.70;103102.00;;;;4958083;28;20182;-39
2021/12/17 10:59:19;;;;;;;6.90;6.00;;;14.60;63.70;15.70;103095.00;;;;4951456;29;20169;-39
2021/12/17 11:01:58;;;;;;;6.23;5.63;;;14.60;64.40;15.70;103098.00;;;;4950517;28;20224;-39
2021/12/17 11:04:29;;;;;;;6.47;5.63;;;14.60;64.50;15.70;103107.00;;;;4954582;28;20211;-39
2021/12/17 11:06:57;;;;;;;6.10;5.50;;;14.50;64.50;15.70;103102.00;;;;4969731;28;20158;-39
2021/12/17 11:09:34;;;;;;;6.50;5.90;;;14.50;64.80;15.70;103024.00;;;;4963401;28;20189;-39
2021/12/17 11:12:20;;;;;;;6.27;5.67;;;14.50;64.50;15.70;103108.00;;;;4951108;28;20424;-39
2021/12/17 11:14:46;;;;;;;6.30;5.70;;;14.50;64.70;15.70;103104.00;;;;4950614;29;20204;-39
2021/12/17 11:17:13;;;;;;;6.60;5.60;;;14.50;64.40;15.70;103096.00;;;;4959309;28;20185;-39
2021/12/17 11:19:40;;;;;;;5.80;5.20;;;14.50;64.30;15.70;103097.00;;;;4969880;28;20646;-41
2021/12/17 11:22:05;;;;;;;6.13;5.53;;;14.50;64.60;15.70;103087.00;;;;4969675;28;20576;-40
2021/12/17 11:24:33;;;;;;;5.90;5.40;;;14.50;64.50;15.70;103102.00;;;;4936851;28;20185;-40
2021/12/17 11:26:59;;;;;;;6.13;5.53;;;14.50;64.70;15.70;103095.00;;;;4953277;28;20170;-40
2021/12/17 11:29:25;;;;;;;6.33;5.67;;;14.50;64.50;15.70;103098.00;;;;4957521;28;20178;-40
2021/12/17 11:31:51;;;;;;;7.43;6.13;;;14.50;64.70;15.70;103099.00;;;;4932696;28;20676;-40
2021/12/17 11:34:20;;;;;;;6.20;5.60;;;14.50;64.40;15.70;103091.00;;;;4951776;28;20185;-40
2021/12/17 11:36:46;;;;;;;6.13;5.53;;;14.50;64.50;15.70;103090.00;;;;4964973;28;20548;-40
2021/12/17 11:39:26;;;;;;;6.23;5.63;;;14.50;64.30;15.70;103094.00;;;;4964169;28;20652;-40
2021/12/17 11:42:25;;;;;;;6.37;5.70;;;14.50;64.50;15.70;103096.00;;;;4968560;28;20187;-40
2021/12/17 11:45:23;;;;;;;6.00;5.50;;;14.60;64.80;15.70;103094.00;;;;4968847;28;20359;-40
2021/12/17 11:47:41;;;;;;;6.47;5.87;;;14.50;64.60;15.70;103102.00;;;;4952226;28;20234;-40
2021/12/17 11:50:09;;;;;;;5.90;5.40;;;14.50;64.50;15.70;103101.00;;;;4952825;28;20184;-40
2021/12/17 11:52:34;;;;;;;6.33;5.73;;;14.50;64.60;15.70;103100.00;;;;4958803;28;20803;-40
2021/12/17 11:55:35;;;;;;;5.80;5.30;;;14.50;64.50;15.70;103107.00;;;;4961647;28;20502;-40
2021/12/17 11:58:07;;;;;;;6.00;5.40;;;14.50;64.50;15.70;103097.00;;;;4957199;28;20223;-40
2021/12/17 12:00:39;;;;;;;6.50;5.80;;;14.50;64.30;15.70;103102.00;;;;4954966;28;20270;-40
2021/12/17 12:03:22;;;;;;;6.20;5.60;;;14.50;64.30;15.70;103105.00;;;;4953342;28;20308;-40
2021/12/17 12:05:50;;;;;;;5.80;5.30;;;14.50;64.70;15.70;103095.00;;;;4949669;28;20181;-40
2021/12/17 12:08:47;;;;;;;6.30;5.70;;;14.50;64.50;15.70;103093.00;;;;4949978;28;20177;-40
2021/12/17 12:11:25;;;;;;;5.70;5.20;;;14.50;64.60;15.70;103102.00;;;;4949298;28;20177;-40
2021/12/17 12:13:53;;;;;;;6.33;5.73;;;14.50;64.80;15.70;103097.00;;;;4953450;28;20204;-40
2021/12/17 12:16:22;;;;;;;5.93;5.43;;;14.50;64.40;15.70;103093.00;;;;4969339;28;20714;-40
2021/12/17 12:19:07;;;;;;;6.93;5.57;;;14.50;64.60;15.70;103089.00;;;;4969189;28;20173;-40
2021/12/17 12:21:35;;;;;;;6.33;5.30;;;14.50;64.50;15.70;103082.00;;;;4969267;28;20230;-40
2021/12/17 12:24:16;;;;;;;6.47;5.87;;;14.50;64.70;15.70;103086.00;;;;4966913;28;20582;-39
2021/12/17 12:26:47;;;;;;;5.97;5.47;;;14.60;64.70;15.70;103074.00;;;;4968063;28;20188;-40
2021/12/17 12:29:16;;;;;;;5.90;5.33;;;14.50;64.30;15.70;103090.00;;;;4968846;28;20177;-40
2021/12/17 12:31:49;;;;;;;6.53;5.50;;;14.50;64.50;15.70;103089.00;;;;4967887;28;20191;-39
2021/12/17 12:34:39;;;;;;;5.53;5.03;;;14.50;64.70;15.70;103088.00;;;;4969213;28;20352;-40
2021/12/17 12:37:16;;;;;;;6.57;5.53;;;14.50;64.90;15.60;103092.00;;;;4968877;28;20192;-39
2021/12/17 12:39:54;;;;;;;5.67;5.07;;;14.50;64.80;15.70;103086.00;;;;4969308;28;20207;-41
2021/12/17 12:42:35;;;;;;;5.37;4.80;;;14.50;64.90;15.70;103096.00;;;;4968654;28;20224;-41
2021/12/17 12:45:03;;;;;;;5.53;5.03;;;14.50;64.70;15.70;103089.00;;;;4968977;28;20895;-40
2021/12/17 12:47:34;;;;;;;6.93;5.40;;;14.50;64.80;15.70;103088.00;;;;4968674;28;20196;-40
2021/12/17 12:50:03;;;;;;;6.10;5.43;;;14.50;64.70;15.70;103079.00;;;;4969235;28;20169;-41
2021/12/17 12:52:29;;;;;;;5.70;5.20;;;14.50;64.50;15.60;103078.00;;;;4971057;28;20185;-40
2021/12/17 12:55:15;;;;;;;5.60;5.10;;;14.50;64.60;15.70;103087.00;;;;4970767;28;20207;-40
2021/12/17 12:57:52;;;;;;;5.50;5.00;;;14.50;64.80;15.60;103086.00;;;;4968674;28;20187;-40
2021/12/17 13:00:33;;;;;;;5.40;5.00;;;14.50;64.40;15.60;103079.00;;;;4968449;28;20197;-40
2021/12/17 13:03:07;;;;;;;9.67;6.17;;;14.50;64.70;15.60;103091.00;;;;4968581;28;20178;-40
2021/12/17 13:05:35;;;;;;;11.63;5.30;;;14.50;65.20;15.70;103084.00;;;;4971989;28;20252;-41
2021/12/17 13:08:06;;;;;;;9.47;5.37;;;14.50;64.90;15.70;103086.00;;;;4972191;28;20636;-39
2021/12/17 13:11:00;;;;;;;11.40;5.40;;;14.50;65.10;15.60;103089.00;;;;4972271;28;20653;-39
2021/12/17 13:13:34;;;;;;;8.23;5.10;;;14.50;65.30;15.60;103080.00;;;;4970003;28;20221;-40
2021/12/17 13:16:08;;;;;;;9.67;5.40;;;14.50;65.30;15.70;103087.00;;;;4972643;28;20648;-40
2021/12/17 13:21:34;;;;;;;9.80;4.90;;;14.50;65.40;15.70;103080.00;;;;4971545;28;20569;-40
2021/12/17 13:24:11;;;;;;;7.60;5.10;;;14.50;65.30;15.60;103073.00;;;;4970567;28;20205;-40
2021/12/17 13:27:02;;;;;;;8.93;4.80;;;14.50;65.20;15.60;103082.00;;;;4971558;28;20169;-40
2021/12/17 13:29:34;;;;;;;9.67;4.90;;;14.50;65.30;15.60;103060.00;;;;4968111;28;20220;-40
2021/12/17 13:32:02;;;;;;;7.70;4.90;;;14.50;65.30;15.70;103067.00;;;;4972054;28;20185;-40
2021/12/17 13:34:37;;;;;;;6.47;4.60;;;14.50;65.00;15.70;103065.00;;;;4971182;28;20212;-40
2021/12/17 13:37:14;;;;;;;5.80;4.70;;;14.40;65.20;15.70;103059.00;;;;4971020;28;20239;-40
2021/12/17 13:39:57;;;;;;;6.33;4.63;;;14.50;65.00;15.60;103055.00;;;;4971543;28;20205;-40
2021/12/17 13:42:31;;;;;;;7.20;4.63;;;14.40;65.10;15.60;103059.00;;;;4971579;28;20272;-40
2021/12/17 13:45:31;;;;;;;7.43;4.70;;;14.40;65.10;15.60;103058.00;;;;4970761;28;20251;-40